Time;durP1;ratioP1;P1;durP2;ratioP2;P2;SDS_P1;SDS_P2;PMS_P1;PMS_P2;Temp;Humidity;BMP_temperature;BMP_pressure;BME280_temperature;BME280_humidity;BME280_pressure;Samples;Min_cycle;Max_cycle;Signal;HPM_P1;HPM_P2
2022/06/30 00:00:30;;;;;;;6.72;3.50;;;;;;;17.26;63.08;100777.91;5145176;27;20052;-67
2022/06/30 00:02:56;;;;;;;8.77;3.47;;;;;;;17.19;63.29;100777.22;5145373;27;20019;-67
2022/06/30 00:05:21;;;;;;;6.45;3.10;;;;;;;17.14;63.78;100771.28;5145234;27;20019;-67
2022/06/30 00:07:47;;;;;;;7.85;3.40;;;;;;;17.12;64.11;100775.69;5145243;27;20023;-66
2022/06/30 00:10:13;;;;;;;6.10;4.07;;;;;;;17.07;64.19;100774.06;5145023;27;20026;-66
2022/06/30 00:12:39;;;;;;;10.85;3.88;;;;;;;17.06;64.31;100779.34;5145177;27;20023;-66
2022/06/30 00:15:05;;;;;;;8.35;4.15;;;;;;;17.02;64.46;100775.06;5144988;27;20031;-66
2022/06/30 00:17:31;;;;;;;8.43;4.07;;;;;;;16.96;64.74;100773.50;5144957;27;20041;-66
2022/06/30 00:19:56;;;;;;;9.90;4.60;;;;;;;16.93;64.69;100776.22;5144786;27;20498;-66
2022/06/30 00:22:21;;;;;;;7.55;4.07;;;;;;;16.90;64.97;100777.16;5144790;27;20295;-66
2022/06/30 00:24:47;;;;;;;7.85;4.90;;;;;;;16.84;65.38;100769.47;5144860;27;20040;-67
2022/06/30 00:27:12;;;;;;;7.10;4.18;;;;;;;16.83;65.32;100773.88;5144859;27;20079;-66
2022/06/30 00:29:38;;;;;;;7.30;4.38;;;;;;;16.79;65.66;100776.63;5144792;27;20023;-66
2022/06/30 00:32:04;;;;;;;9.07;4.82;;;;;;;16.76;65.49;100769.69;5144873;27;20031;-67
2022/06/30 00:34:29;;;;;;;7.38;4.38;;;;;;;16.74;65.82;100784.63;5144770;27;20027;-67
2022/06/30 00:36:55;;;;;;;7.75;4.05;;;;;;;16.71;65.66;100776.81;5144575;27;20068;-66
2022/06/30 00:39:21;;;;;;;7.40;4.60;;;;;;;16.65;65.83;100777.84;5144592;27;20554;-67
2022/06/30 00:41:46;;;;;;;8.73;4.68;;;;;;;16.62;66.02;100770.09;5144613;27;20019;-67
2022/06/30 00:44:13;;;;;;;9.95;4.53;;;;;;;16.60;66.06;100777.13;5144728;27;20061;-66
2022/06/30 00:46:39;;;;;;;7.80;4.03;;;;;;;16.52;66.69;100781.75;5144710;27;20039;-66
2022/06/30 00:49:06;;;;;;;9.63;4.50;;;;;;;16.44;66.88;100771.44;5144769;27;20656;-66
2022/06/30 00:51:31;;;;;;;8.35;4.60;;;;;;;16.38;67.01;100774.22;5144539;27;20020;-66
2022/06/30 00:54:00;;;;;;;11.02;4.28;;;;;;;16.40;67.26;100777.69;5144302;27;20382;-66
2022/06/30 00:56:27;;;;;;;9.13;3.75;;;;;;;16.34;67.46;100778.72;5144465;28;20026;-66
2022/06/30 00:58:55;;;;;;;11.25;4.47;;;;;;;16.33;67.32;100775.22;5147477;27;20027;-66
2022/06/30 01:01:23;;;;;;;10.48;4.75;;;;;;;16.30;67.28;100777.06;5151175;27;20029;-66
2022/06/30 01:03:50;;;;;;;11.07;4.75;;;;;;;16.27;67.33;100778.00;5151326;27;20034;-65
2022/06/30 01:06:16;;;;;;;7.05;3.90;;;;;;;16.26;67.49;100778.91;5151142;27;20015;-66
2022/06/30 01:08:42;;;;;;;9.35;4.10;;;;;;;16.22;67.61;100772.03;5151046;27;20019;-67
2022/06/30 01:13:52;;;;;;;7.80;5.18;;;;;;;16.12;67.72;100771.41;5151138;27;20038;-67
2022/06/30 01:16:19;;;;;;;6.95;3.97;;;;;;;16.08;67.70;100775.88;5115743;27;20019;-66
2022/06/30 01:18:45;;;;;;;9.05;4.53;;;;;;;16.05;67.76;100768.09;5151028;27;20087;-66
2022/06/30 01:21:11;;;;;;;10.23;4.65;;;;;;;16.02;68.05;100777.78;5151053;27;20047;-66
2022/06/30 01:23:36;;;;;;;7.25;4.07;;;;;;;15.93;68.20;100763.13;5150717;27;20039;-66
2022/06/30 01:26:02;;;;;;;5.57;4.25;;;;;;;15.93;68.26;100757.88;5151188;27;20019;-66
2022/06/30 01:28:27;;;;;;;7.28;4.05;;;;;;;15.91;68.46;100765.78;5150921;27;20030;-66
2022/06/30 01:30:52;;;;;;;6.22;4.63;;;;;;;15.89;68.47;100758.88;5151000;27;20042;-66
2022/06/30 01:33:18;;;;;;;9.02;4.70;;;;;;;15.88;68.59;100759.78;5151100;27;20023;-67
2022/06/30 01:35:43;;;;;;;8.25;3.75;;;;;;;15.88;68.76;100760.63;5151149;27;20106;-66
2022/06/30 01:38:08;;;;;;;9.43;4.22;;;;;;;15.89;68.71;100754.50;5150604;27;20027;-67
2022/06/30 01:40:35;;;;;;;8.82;4.32;;;;;;;15.92;69.13;100756.16;5151055;27;20047;-67
2022/06/30 01:43:05;;;;;;;5.55;4.15;;;;;;;15.91;68.73;100754.47;5150878;27;20075;-66
2022/06/30 01:45:31;;;;;;;7.05;3.60;;;;;;;15.90;68.96;100756.22;5150888;27;20027;-66
2022/06/30 01:47:56;;;;;;;4.07;3.40;;;;;;;15.89;68.94;100761.47;5151059;27;20079;-67
2022/06/30 01:50:27;;;;;;;6.43;3.60;;;;;;;15.88;68.84;100751.91;5150615;27;20051;-67
2022/06/30 01:52:53;;;;;;;8.43;3.73;;;;;;;15.90;68.71;100752.72;5150889;27;20127;-67
2022/06/30 01:55:19;;;;;;;6.65;3.53;;;;;;;15.89;68.69;100753.63;5150732;27;20293;-66
2022/06/30 01:57:45;;;;;;;7.03;2.95;;;;;;;15.88;68.38;100746.69;5150831;27;20023;-67
2022/06/30 02:00:17;;;;;;;6.47;2.78;;;;;;;15.88;68.20;100747.53;5150829;27;20370;-67
2022/06/30 02:02:42;;;;;;;4.88;2.55;;;;;;;15.89;67.92;100751.88;5150806;27;20052;-67
2022/06/30 02:05:08;;;;;;;6.25;2.50;;;;;;;15.92;67.95;100745.69;5150825;27;20031;-67
2022/06/30 02:07:37;;;;;;;8.35;2.85;;;;;;;15.95;67.94;100750.84;5150894;27;20041;-67
2022/06/30 02:10:11;;;;;;;5.80;2.55;;;;;;;15.96;67.70;100752.56;5149020;27;20023;-67
2022/06/30 02:12:46;;;;;;;6.05;2.92;;;;;;;15.94;67.45;100759.63;5147590;27;20019;-68
2022/06/30 02:15:36;;;;;;;5.32;2.88;;;;;;;15.91;67.53;100757.91;5147491;27;20043;-68
2022/06/30 02:18:05;;;;;;;4.72;2.72;;;;;;;15.89;67.65;100756.25;5147484;27;20072;-68
2022/06/30 02:20:31;;;;;;;5.50;3.05;;;;;;;15.86;67.66;100763.28;5147223;27;20111;-68
2022/06/30 02:23:01;;;;;;;4.90;2.17;;;;;;;15.82;67.59;100758.16;5146908;27;20056;-69
2022/06/30 02:25:28;;;;;;;7.88;3.40;;;;;;;15.74;67.77;100748.75;5147234;27;20027;-67
2022/06/30 02:27:54;;;;;;;5.53;3.13;;;;;;;15.77;67.93;100763.50;5147056;27;20019;-68
2022/06/30 02:30:20;;;;;;;4.95;3.00;;;;;;;15.76;68.25;100763.53;5147040;27;20029;-67
2022/06/30 02:32:46;;;;;;;4.63;2.80;;;;;;;15.76;68.20;100756.56;5128696;27;20022;-68
2022/06/30 02:35:12;;;;;;;5.05;3.05;;;;;;;15.76;68.25;100753.94;5147191;27;20023;-68
2022/06/30 02:37:37;;;;;;;6.30;3.17;;;;;;;15.78;68.20;100752.16;5146896;27;20106;-69
2022/06/30 02:40:04;;;;;;;4.22;2.92;;;;;;;15.81;68.09;100748.59;5146886;27;20095;-68
2022/06/30 02:42:29;;;;;;;4.50;2.75;;;;;;;15.81;68.10;100739.00;5146996;27;20390;-68
2022/06/30 02:44:54;;;;;;;6.22;2.25;;;;;;;15.86;67.78;100747.56;5147086;27;20073;-69
2022/06/30 02:47:20;;;;;;;6.40;3.03;;;;;;;15.92;67.84;100741.34;5146979;27;20015;-68
2022/06/30 02:49:46;;;;;;;5.28;2.67;;;;;;;15.95;67.95;100751.72;5146852;27;20023;-68
2022/06/30 02:52:11;;;;;;;5.65;2.70;;;;;;;15.96;67.89;100747.31;5145387;27;20027;-68
2022/06/30 02:54:37;;;;;;;6.13;2.50;;;;;;;15.96;67.66;100744.72;5146648;27;20045;-68
2022/06/30 02:57:02;;;;;;;6.80;3.35;;;;;;;15.98;67.79;100742.94;5146543;27;20023;-68
2022/06/30 02:59:28;;;;;;;3.97;2.25;;;;;;;15.98;67.88;100740.34;5146705;27;20446;-68
2022/06/30 03:01:53;;;;;;;6.75;2.40;;;;;;;16.02;67.86;100738.50;5146486;27;20027;-68
2022/06/30 03:04:18;;;;;;;8.88;2.70;;;;;;;16.04;67.41;100744.56;5146246;27;20042;-68
2022/06/30 03:06:44;;;;;;;5.28;2.75;;;;;;;16.06;67.48;100740.13;5146518;27;20026;-67
2022/06/30 03:09:09;;;;;;;7.63;2.70;;;;;;;16.14;67.46;100745.16;5146236;27;20023;-68
2022/06/30 03:11:35;;;;;;;5.78;2.40;;;;;;;16.23;67.54;100739.69;5146256;27;20031;-70
2022/06/30 03:14:00;;;;;;;4.05;2.60;;;;;;;16.52;67.65;100745.88;5146239;27;20057;-70
2022/06/30 03:16:26;;;;;;;4.25;1.80;;;;;;;16.88;67.73;100747.50;5146175;27;20026;-70
2022/06/30 03:18:52;;;;;;;7.05;1.90;;;;;;;17.36;66.91;100747.84;5146242;27;20104;-69
2022/06/30 03:21:20;;;;;;;5.03;1.95;;;;;;;17.70;65.49;100743.25;5145785;27;20145;-69
2022/06/30 03:23:46;;;;;;;3.30;1.73;;;;;;;18.09;64.21;100745.47;5144946;27;20049;-70
2022/06/30 03:26:12;;;;;;;4.30;1.75;;;;;;;18.55;62.53;100749.16;5146300;27;20077;-70
2022/06/30 03:28:37;;;;;;;3.42;1.58;;;;;;;18.90;61.41;100754.00;5146102;27;20482;-70
2022/06/30 03:31:03;;;;;;;3.45;1.60;;;;;;;19.20;59.59;100752.00;5146062;27;20109;-70
2022/06/30 03:33:28;;;;;;;4.05;1.90;;;;;;;19.47;58.99;100750.13;5145935;27;20050;-70
2022/06/30 03:35:54;;;;;;;4.10;2.00;;;;;;;19.74;58.03;100753.41;5145556;27;20098;-70
2022/06/30 03:38:19;;;;;;;6.93;1.70;;;;;;;20.04;57.59;100742.53;5145634;27;20094;-70
2022/06/30 03:40:44;;;;;;;3.92;1.70;;;;;;;20.38;56.17;100750.75;5145656;27;20031;-70
2022/06/30 03:43:10;;;;;;;5.50;1.55;;;;;;;20.62;54.66;100742.66;5145592;27;20047;-69
2022/06/30 03:45:36;;;;;;;2.83;1.45;;;;;;;20.95;53.76;100740.31;5145570;27;20363;-70
2022/06/30 03:48:04;;;;;;;4.57;1.67;;;;;;;21.23;52.44;100747.78;5145647;27;20051;-70
2022/06/30 03:50:30;;;;;;;3.30;1.10;;;;;;;21.54;52.20;100742.78;5145485;27;20019;-70
2022/06/30 03:52:56;;;;;;;3.10;1.65;;;;;;;21.88;50.73;100748.19;5145364;27;20110;-70
2022/06/30 03:55:21;;;;;;;4.50;1.38;;;;;;;22.10;50.30;100749.72;5145455;27;20044;-70
2022/06/30 03:57:47;;;;;;;4.65;1.27;;;;;;;22.34;49.24;100744.09;5145364;27;20019;-70
2022/06/30 04:00:12;;;;;;;2.17;1.15;;;;;;;22.51;48.77;100736.13;5126910;27;20103;-70
2022/06/30 04:02:38;;;;;;;4.70;1.45;;;;;;;22.80;48.06;100747.88;5145287;27;20019;-70
2022/06/30 04:05:05;;;;;;;4.25;1.25;;;;;;;22.88;46.61;100743.00;5145374;27;20035;-71
2022/06/30 04:07:30;;;;;;;3.03;1.30;;;;;;;22.93;46.30;100733.03;5144957;27;20026;-69
2022/06/30 04:09:55;;;;;;;2.60;1.50;;;;;;;23.13;46.03;100739.00;5145174;27;20027;-74
2022/06/30 04:12:21;;;;;;;3.13;1.42;;;;;;;23.47;46.03;100737.09;5144991;27;20026;-67
2022/06/30 04:14:46;;;;;;;3.67;1.48;;;;;;;24.01;45.08;100732.25;5145381;27;20071;-67
2022/06/30 04:17:11;;;;;;;2.95;1.58;;;;;;;24.24;44.09;100741.47;5144979;27;20054;-67
2022/06/30 04:19:37;;;;;;;5.15;1.73;;;;;;;24.41;44.13;100734.25;5145073;27;20148;-66
2022/06/30 04:22:04;;;;;;;3.72;1.42;;;;;;;24.59;42.61;100732.28;5145062;27;20055;-67
2022/06/30 04:24:29;;;;;;;5.55;1.73;;;;;;;24.61;42.69;100729.50;5144875;27;20068;-67
2022/06/30 04:26:55;;;;;;;3.22;1.30;;;;;;;24.67;42.51;100734.44;5144945;27;20027;-67
2022/06/30 04:29:20;;;;;;;2.13;1.45;;;;;;;24.79;41.68;100726.66;5145179;27;20144;-72
2022/06/30 04:34:30;;;;;;;3.63;1.10;;;;;;;25.25;40.87;100726.38;5144522;27;20034;-69
2022/06/30 04:36:55;;;;;;;3.28;1.40;;;;;;;25.50;40.28;100718.53;5144595;27;20019;-67
2022/06/30 04:39:21;;;;;;;2.53;1.20;;;;;;;25.81;39.58;100728.94;5144427;27;20035;-67
2022/06/30 04:41:47;;;;;;;2.63;1.27;;;;;;;25.82;38.13;100723.53;5144710;27;20019;-69
2022/06/30 04:44:12;;;;;;;5.05;1.10;;;;;;;25.79;38.69;100726.41;5144665;27;20064;-69
2022/06/30 04:46:38;;;;;;;3.22;1.17;;;;;;;25.77;38.86;100725.63;5144363;27;20015;-68
2022/06/30 04:49:03;;;;;;;3.13;1.17;;;;;;;25.79;38.42;100720.22;5144672;27;20044;-69
2022/06/30 04:51:28;;;;;;;4.65;1.27;;;;;;;25.96;38.06;100724.41;5144531;27;20030;-68
2022/06/30 04:53:54;;;;;;;1.73;0.80;;;;;;;26.09;37.96;100724.38;5144339;27;20486;-68
2022/06/30 04:56:20;;;;;;;2.97;1.20;;;;;;;26.04;37.78;100723.88;5144501;27;20031;-69
2022/06/30 04:58:45;;;;;;;5.30;1.15;;;;;;;26.09;37.10;100727.03;5144703;28;20052;-68
2022/06/30 05:01:11;;;;;;;2.60;1.10;;;;;;;26.26;37.34;100722.34;5144363;28;20026;-69
2022/06/30 05:03:37;;;;;;;5.70;1.40;;;;;;;26.33;37.13;100723.66;5144817;28;20023;-68
2022/06/30 05:06:04;;;;;;;3.72;1.00;;;;;;;26.22;36.74;100708.41;5144601;28;20455;-69
2022/06/30 05:08:31;;;;;;;3.75;1.23;;;;;;;26.21;36.29;100704.06;5144063;28;20030;-69
2022/06/30 05:10:56;;;;;;;2.95;1.23;;;;;;;26.28;35.80;100710.63;5144100;28;20023;-69
2022/06/30 05:13:22;;;;;;;2.25;0.98;;;;;;;26.29;35.78;100714.16;5144281;28;20031;-69
2022/06/30 05:15:47;;;;;;;6.88;1.38;;;;;;;26.35;36.21;100716.41;5125594;28;20254;-69
2022/06/30 05:18:13;;;;;;;2.08;1.00;;;;;;;26.77;36.22;100728.56;5144524;28;20049;-72
2022/06/30 05:20:39;;;;;;;2.92;1.10;;;;;;;27.34;35.25;100707.56;5144285;28;20323;-70
2022/06/30 05:23:04;;;;;;;2.03;1.00;;;;;;;27.94;33.85;100723.50;5143781;28;20031;-71
2022/06/30 05:28:14;;;;;;;4.88;1.00;;;;;;;28.05;32.99;100719.16;5143909;28;20038;-71
2022/06/30 05:30:41;;;;;;;2.28;0.90;;;;;;;27.98;33.16;100705.44;5144038;28;20082;-71
2022/06/30 05:33:07;;;;;;;2.22;1.08;;;;;;;28.13;32.59;100711.38;5125750;28;20027;-71
2022/06/30 05:35:33;;;;;;;4.40;0.95;;;;;;;28.24;32.04;100705.22;5144080;28;20055;-71
2022/06/30 05:37:58;;;;;;;2.10;1.17;;;;;;;28.39;31.84;100705.84;5144022;28;20496;-70
2022/06/30 05:40:23;;;;;;;1.58;0.88;;;;;;;28.42;31.54;100699.44;5144060;28;20015;-70
2022/06/30 05:42:49;;;;;;;4.85;0.80;;;;;;;28.40;30.96;100698.69;5144077;28;20253;-71
2022/06/30 05:45:14;;;;;;;5.35;1.23;;;;;;;28.39;31.31;100705.00;5144710;27;20122;-71
2022/06/30 05:47:50;;;;;;;1.42;0.98;;;;;;;28.54;31.09;100705.59;5148185;27;20015;-71
2022/06/30 05:50:20;;;;;;;1.85;1.00;;;;;;;28.43;31.33;100715.31;5146611;27;20023;-70
2022/06/30 05:52:46;;;;;;;1.98;0.90;;;;;;;28.68;30.47;100709.81;5147876;27;20086;-71
2022/06/30 05:55:12;;;;;;;4.38;0.93;;;;;;;28.47;30.41;100709.75;5148149;27;20030;-71
2022/06/30 05:57:55;;;;;;;2.65;0.75;;;;;;;28.54;30.89;100702.91;5147876;27;20374;-71
2022/06/30 06:00:22;;;;;;;2.20;1.10;;;;;;;28.80;30.88;100706.13;5147771;27;20022;-70
2022/06/30 06:02:48;;;;;;;2.00;1.23;;;;;;;29.18;30.54;100703.13;5147742;27;20027;-71
2022/06/30 06:05:14;;;;;;;1.85;0.70;;;;;;;29.46;29.52;100699.97;5147480;27;20070;-71
2022/06/30 06:07:39;;;;;;;2.20;1.17;;;;;;;29.61;29.48;100688.00;5147420;27;20011;-70
2022/06/30 06:10:05;;;;;;;3.08;0.95;;;;;;;30.13;29.01;100691.66;5147668;27;20110;-71
2022/06/30 06:12:31;;;;;;;4.97;1.00;;;;;;;30.32;28.17;100698.94;5147520;27;20448;-71
2022/06/30 06:14:56;;;;;;;3.33;0.90;;;;;;;30.40;28.06;100685.69;5147640;27;20023;-71
2022/06/30 06:17:21;;;;;;;3.13;0.98;;;;;;;30.72;28.25;100685.63;5147524;27;20011;-71
2022/06/30 06:19:47;;;;;;;3.70;1.10;;;;;;;31.15;27.12;100692.44;5147427;27;20472;-71
2022/06/30 06:22:12;;;;;;;5.38;1.00;;;;;;;31.14;26.79;100696.13;5147503;27;20027;-72
2022/06/30 06:24:37;;;;;;;2.13;0.80;;;;;;;30.90;26.81;100693.84;5147113;27;20039;-72
2022/06/30 06:27:03;;;;;;;3.65;0.82;;;;;;;30.80;26.62;100693.81;5147459;27;20022;-71
2022/06/30 06:29:29;;;;;;;2.92;1.02;;;;;;;31.10;26.25;100692.03;5147191;27;20058;-71
2022/06/30 06:31:55;;;;;;;3.58;1.00;;;;;;;31.40;26.20;100700.09;5128686;27;20027;-71
2022/06/30 06:34:21;;;;;;;3.90;1.15;;;;;;;31.69;25.36;100693.81;5147441;27;20038;-71
2022/06/30 06:36:46;;;;;;;1.83;0.63;;;;;;;32.03;25.67;100698.66;5147215;27;20076;-70
2022/06/30 06:39:11;;;;;;;1.55;0.70;;;;;;;32.30;24.62;100692.63;5146954;27;20023;-70
2022/06/30 06:41:37;;;;;;;4.45;0.82;;;;;;;32.06;24.85;100694.88;5147169;27;20424;-71
2022/06/30 06:44:02;;;;;;;4.43;0.77;;;;;;;31.86;24.23;100689.53;5147045;27;20034;-70
2022/06/30 06:46:28;;;;;;;2.40;0.90;;;;;;;31.48;24.29;100694.00;5147083;27;20093;-70
2022/06/30 06:48:59;;;;;;;2.55;1.25;;;;;;;31.02;25.07;100698.06;5146849;27;20023;-71
2022/06/30 06:51:25;;;;;;;1.23;0.60;;;;;;;30.67;25.38;100697.59;5146728;27;20027;-71
2022/06/30 06:53:51;;;;;;;1.48;0.63;;;;;;;30.27;25.70;100699.31;5146329;27;20026;-71
2022/06/30 06:56:16;;;;;;;5.45;1.45;;;;;;;29.93;26.08;100697.75;5146378;27;20019;-72
2022/06/30 06:58:41;;;;;;;1.98;0.75;;;;;;;29.67;26.35;100695.50;5146629;27;20100;-71
2022/06/30 07:01:07;;;;;;;2.35;0.90;;;;;;;29.49;26.10;100686.34;5146525;27;20023;-71
2022/06/30 07:03:32;;;;;;;1.60;0.75;;;;;;;29.29;26.37;100694.22;5146710;27;20023;-71
2022/06/30 07:05:58;;;;;;;1.30;0.70;;;;;;;29.02;26.36;100696.41;5146477;27;20050;-71
2022/06/30 07:08:23;;;;;;;3.20;1.15;;;;;;;28.83;27.06;100689.03;5146475;27;20035;-71
2022/06/30 07:10:49;;;;;;;2.08;0.95;;;;;;;28.81;27.26;100701.66;5146401;27;20019;-71
2022/06/30 07:13:14;;;;;;;2.38;1.10;;;;;;;28.76;27.24;100686.00;5146545;27;20037;-71
2022/06/30 07:15:39;;;;;;;2.08;0.95;;;;;;;28.72;27.34;100694.38;5146380;27;20023;-71
2022/06/30 07:18:05;;;;;;;4.63;1.40;;;;;;;28.68;27.73;100689.31;5146479;27;20038;-71
2022/06/30 07:20:30;;;;;;;2.50;1.10;;;;;;;29.04;27.85;100690.94;5127623;27;20027;-71
2022/06/30 07:22:56;;;;;;;2.22;0.85;;;;;;;29.14;27.45;100681.16;5145850;27;20038;-71
2022/06/30 07:25:21;;;;;;;3.47;0.98;;;;;;;29.24;27.43;100683.06;5145749;27;20043;-72
2022/06/30 07:27:46;;;;;;;1.27;0.80;;;;;;;28.98;27.35;100684.25;5146022;27;20042;-71
2022/06/30 07:30:12;;;;;;;1.83;0.85;;;;;;;29.00;27.50;100681.44;5146110;27;20330;-71
2022/06/30 07:32:38;;;;;;;3.22;1.17;;;;;;;29.05;27.21;100677.44;5145920;27;20683;-71
2022/06/30 07:35:04;;;;;;;1.02;0.70;;;;;;;29.05;27.14;100674.75;5146149;27;20130;-70
2022/06/30 07:37:30;;;;;;;2.75;1.33;;;;;;;29.09;27.97;100675.34;5145758;27;20069;-72
2022/06/30 07:39:55;;;;;;;2.58;0.95;;;;;;;29.38;27.82;100676.56;5145818;27;20023;-70
2022/06/30 07:42:20;;;;;;;2.53;1.00;;;;;;;29.37;27.93;100670.34;5145802;27;20031;-70
2022/06/30 07:44:47;;;;;;;3.25;0.98;;;;;;;29.57;27.62;100665.13;5145663;27;20023;-71
2022/06/30 07:47:12;;;;;;;3.15;0.90;;;;;;;29.61;27.35;100660.41;5145796;27;20015;-71
2022/06/30 07:49:38;;;;;;;2.67;0.70;;;;;;;29.74;27.37;100671.75;5145576;27;20038;-70
2022/06/30 07:52:04;;;;;;;2.05;1.00;;;;;;;29.66;27.09;100672.41;5145762;27;20030;-71
2022/06/30 07:54:30;;;;;;;2.95;1.23;;;;;;;29.67;27.10;100666.06;5145518;27;20075;-71
2022/06/30 07:56:55;;;;;;;2.05;0.95;;;;;;;30.04;26.86;100669.19;5145456;27;20023;-72
2022/06/30 07:59:21;;;;;;;1.40;0.82;;;;;;;30.58;27.13;100673.50;5145401;27;20053;-72
2022/06/30 08:01:46;;;;;;;3.85;1.02;;;;;;;30.75;25.78;100670.09;5145353;27;20102;-72
2022/06/30 08:04:11;;;;;;;0.90;0.63;;;;;;;30.71;25.44;100668.69;5145261;27;20146;-71
2022/06/30 08:06:37;;;;;;;1.77;1.05;;;;;;;30.74;26.00;100665.72;5145284;27;20019;-71
2022/06/30 08:09:03;;;;;;;1.30;0.70;;;;;;;30.88;26.37;100653.78;5144427;27;20019;-71
2022/06/30 08:11:29;;;;;;;1.75;0.73;;;;;;;31.30;26.28;100654.47;5145116;27;20034;-71
2022/06/30 08:13:54;;;;;;;4.65;0.90;;;;;;;31.79;25.67;100658.91;5145228;27;20027;-71
2022/06/30 08:16:20;;;;;;;3.30;1.20;;;;;;;32.01;24.98;100654.19;5145126;27;20019;-72
2022/06/30 08:18:45;;;;;;;1.25;0.80;;;;;;;31.82;25.14;100655.06;5143970;27;20335;-72
2022/06/30 08:21:11;;;;;;;2.20;0.88;;;;;;;31.56;25.67;100650.34;5145137;27;20029;-72
2022/06/30 08:23:37;;;;;;;3.33;1.08;;;;;;;31.72;25.57;100645.22;5144706;27;20066;-73
2022/06/30 08:26:03;;;;;;;1.92;0.93;;;;;;;32.09;24.88;100648.91;5144983;27;20019;-72
2022/06/30 08:28:28;;;;;;;4.43;1.00;;;;;;;32.27;24.98;100637.38;5144904;27;20023;-72
2022/06/30 08:30:54;;;;;;;2.33;1.17;;;;;;;32.12;24.45;100637.88;5144861;27;20355;-72
2022/06/30 08:33:19;;;;;;;1.85;0.90;;;;;;;32.17;24.21;100644.63;5144832;27;20086;-73
2022/06/30 08:35:44;;;;;;;4.35;1.08;;;;;;;31.98;24.31;100646.44;5144771;27;20037;-73
2022/06/30 08:38:10;;;;;;;1.85;0.93;;;;;;;31.80;24.49;100644.47;5144909;27;20023;-72
2022/06/30 08:43:25;;;;;;;4.15;1.15;;;;;;;31.45;24.86;100633.44;5143438;27;20030;-73
2022/06/30 08:45:52;;;;;;;1.90;0.80;;;;;;;31.90;24.68;100642.59;5144501;27;20015;-71
2022/06/30 08:48:18;;;;;;;1.40;0.70;;;;;;;31.96;24.07;100640.34;5144513;27;20076;-73
2022/06/30 08:50:46;;;;;;;2.05;1.08;;;;;;;31.84;23.80;100637.81;5144794;27;20015;-73
2022/06/30 08:53:16;;;;;;;3.40;1.00;;;;;;;31.68;24.18;100635.75;5144588;27;20030;-72
2022/06/30 08:55:42;;;;;;;1.75;1.10;;;;;;;31.97;24.99;100618.72;5143348;27;20048;-73
2022/06/30 08:58:08;;;;;;;2.08;1.02;;;;;;;32.75;23.99;100629.16;5144672;27;20047;-72
2022/06/30 09:00:35;;;;;;;1.75;0.80;;;;;;;32.77;23.18;100629.81;5144501;28;20019;-71
2022/06/30 09:03:02;;;;;;;2.50;0.80;;;;;;;32.58;22.98;100631.69;5144595;28;20026;-72
2022/06/30 09:05:28;;;;;;;1.52;0.90;;;;;;;32.61;23.41;100633.19;5144647;28;20019;-72
2022/06/30 09:07:53;;;;;;;3.58;1.23;;;;;;;32.59;23.33;100625.28;5144847;28;20438;-72
2022/06/30 09:10:18;;;;;;;1.92;0.90;;;;;;;32.63;23.34;100615.94;5143419;28;20027;-73
2022/06/30 09:13:03;;;;;;;2.67;0.80;;;;;;;32.76;22.85;100606.66;5143861;28;20042;-72
2022/06/30 09:15:30;;;;;;;2.25;0.90;;;;;;;33.22;23.09;100613.75;5144323;28;20027;-72
2022/06/30 09:17:56;;;;;;;1.63;0.80;;;;;;;33.59;22.14;100614.47;5144350;28;20049;-73
2022/06/30 09:20:36;;;;;;;2.63;1.00;;;;;;;33.90;22.49;100607.75;5146908;27;20075;-73
2022/06/30 09:23:27;;;;;;;1.65;0.80;;;;;;;33.80;21.66;100606.03;5148035;27;20019;-72
2022/06/30 09:25:55;;;;;;;1.40;0.80;;;;;;;33.95;21.75;100610.78;5148586;27;20023;-72
2022/06/30 09:28:47;;;;;;;1.60;0.80;;;;;;;34.18;21.39;100619.16;5147123;27;20082;-73
2022/06/30 09:31:29;;;;;;;3.22;1.08;;;;;;;33.65;21.56;100608.47;5148263;27;20032;-72
2022/06/30 09:33:55;;;;;;;2.42;0.80;;;;;;;33.95;21.88;100611.63;5148346;27;20034;-73
2022/06/30 09:36:26;;;;;;;1.58;0.82;;;;;;;33.96;21.96;100605.25;5148094;27;20023;-73
2022/06/30 09:39:09;;;;;;;2.67;0.70;;;;;;;33.97;21.34;100611.47;5148036;27;20022;-72
2022/06/30 09:41:39;;;;;;;7.57;0.73;;;;;;;33.73;21.57;100611.22;5148147;27;20023;-72
2022/06/30 09:44:17;;;;;;;1.30;0.77;;;;;;;34.12;21.85;100609.81;5148386;27;20023;-73
2022/06/30 09:46:59;;;;;;;2.38;1.02;;;;;;;34.83;21.60;100600.53;5148285;27;20280;-73
2022/06/30 09:49:30;;;;;;;1.80;0.80;;;;;;;35.09;20.62;100599.53;5148303;27;20029;-73
2022/06/30 09:51:55;;;;;;;1.67;1.17;;;;;;;35.40;21.27;100595.25;5147969;27;20027;-73
2022/06/30 09:54:21;;;;;;;1.45;0.80;;;;;;;35.66;19.83;100588.75;5147594;27;20550;-73
2022/06/30 09:57:05;;;;;;;294.40;37.88;;;;;;;35.26;21.06;100604.91;5147778;27;20427;-73
2022/06/30 09:59:31;;;;;;;1.33;0.65;;;;;;;34.92;19.85;100593.28;5147840;27;20027;-73
2022/06/30 10:01:58;;;;;;;4.40;0.90;;;;;;;34.55;20.73;100590.06;5147694;27;20023;-73
2022/06/30 10:04:24;;;;;;;3.38;1.08;;;;;;;34.24;21.11;100596.06;5147915;27;20036;-73
2022/06/30 10:06:51;;;;;;;2.33;0.73;;;;;;;34.43;20.31;100596.78;5147879;27;20034;-73
2022/06/30 10:09:17;;;;;;;3.20;0.80;;;;;;;33.76;20.40;100591.19;5147494;27;20102;-73
2022/06/30 10:11:45;;;;;;;3.17;0.93;;;;;;;32.94;21.54;100592.34;5146270;27;20086;-72
2022/06/30 10:14:11;;;;;;;8.68;0.98;;;;;;;32.91;21.91;100598.84;5147655;27;20015;-73
2022/06/30 10:16:39;;;;;;;4.03;1.52;;;;;;;32.99;21.72;100582.78;5147556;27;20024;-73
2022/06/30 10:19:08;;;;;;;5.75;0.90;;;;;;;32.84;21.93;100582.53;5147693;27;20019;-72
2022/06/30 10:21:39;;;;;;;1.45;0.70;;;;;;;32.84;22.08;100589.75;5147526;27;20019;-72
2022/06/30 10:24:05;;;;;;;101.53;8.35;;;;;;;32.76;22.59;100587.84;5147244;27;20065;-72
2022/06/30 10:29:17;;;;;;;2.05;1.10;;;;;;;33.94;22.65;100585.72;5147433;27;20390;-72
2022/06/30 10:31:51;;;;;;;1.80;0.80;;;;;;;34.86;22.23;100581.34;5146615;27;20027;-72
2022/06/30 10:34:24;;;;;;;1.33;0.65;;;;;;;34.99;19.21;100575.44;5147748;27;20033;-72
2022/06/30 10:37:13;;;;;;;2.38;0.90;;;;;;;34.34;19.65;100580.63;5147263;27;20041;-72
2022/06/30 10:39:56;;;;;;;10.68;1.55;;;;;;;33.91;19.98;100582.50;5146927;27;20056;-72
2022/06/30 10:42:48;;;;;;;12.43;0.90;;;;;;;33.31;20.64;100579.69;5146952;27;20371;-72
2022/06/30 10:45:28;;;;;;;6.28;1.55;;;;;;;33.42;20.93;100571.31;5146947;27;20392;-72
2022/06/30 10:48:03;;;;;;;2.30;1.20;;;;;;;33.78;21.11;100574.88;5147136;27;20084;-73
2022/06/30 10:50:37;;;;;;;4.82;1.00;;;;;;;33.77;21.79;100565.97;5146838;27;20094;-72
2022/06/30 10:53:05;;;;;;;2.47;0.90;;;;;;;34.17;21.09;100568.94;5146506;27;20030;-71
2022/06/30 10:55:55;;;;;;;2.53;0.95;;;;;;;34.61;21.15;100558.91;5146983;27;20030;-72
2022/06/30 10:58:21;;;;;;;3.22;0.90;;;;;;;34.11;20.63;100565.03;5146618;27;20277;-72
2022/06/30 11:00:55;;;;;;;11.93;1.00;;;;;;;33.05;22.00;100549.06;5146483;27;20023;-71
2022/06/30 11:03:30;;;;;;;2.88;0.88;;;;;;;32.63;22.86;100540.72;5146485;27;20042;-72
2022/06/30 11:06:07;;;;;;;2.50;0.90;;;;;;;31.95;23.80;100553.59;5146433;27;20027;-72
2022/06/30 11:11:22;;;;;;;3.40;1.23;;;;;;;31.57;24.61;100542.06;5146463;27;20062;-72
2022/06/30 11:13:48;;;;;;;3.13;1.45;;;;;;;31.32;24.04;100545.22;5146491;27;20023;-72
2022/06/30 11:16:15;;;;;;;119.07;11.10;;;;;;;31.06;24.77;100542.34;5146300;27;20015;-72
2022/06/30 11:18:41;;;;;;;3.08;1.38;;;;;;;30.87;24.96;100538.69;5146413;27;20471;-72
2022/06/30 11:21:06;;;;;;;3.10;1.50;;;;;;;30.81;24.88;100540.13;5146190;27;20044;-71
2022/06/30 11:23:39;;;;;;;2.63;1.25;;;;;;;30.65;25.21;100537.97;5146108;27;20039;-71
2022/06/30 11:28:54;;;;;;;0.20;0.20;;;;;;;30.05;25.37;100529.88;5146289;27;20080;-72
2022/06/30 11:31:25;;;;;;;0.10;0.10;;;;;;;29.65;26.25;100538.81;5144577;27;20023;-72
2022/06/30 11:33:56;;;;;;;0.10;0.10;;;;;;;29.45;26.30;100533.31;5146279;27;20019;-72
2022/06/30 11:36:22;;;;;;;0.10;0.10;;;;;;;29.15;26.30;100543.03;5146170;27;20128;-72
2022/06/30 11:39:00;;;;;;;0.10;0.10;;;;;;;28.95;26.52;100529.50;5145960;27;20032;-72
2022/06/30 11:44:14;;;;;;;0.10;0.10;;;;;;;28.52;26.82;100528.63;5145021;27;20034;-72
2022/06/30 11:47:07;;;;;;;0.20;0.20;;;;;;;28.25;26.93;100524.56;5145819;27;20046;-72